<?xml version="1.0" encoding="UTF-8" standalone="no" ?>
<gpx xmlns="http://www.topografix.com/GPX/1/1" xmlns:xsi="http://www.w3.org/2001/XMLSchema-instance" xsi:schemaLocation="http://www.topografix.com/GPX/1/1 http://www.topografix.com/GPX/1/1/gpx.xsd" version="1.1" creator="VisuGPX - https://www.visugpx.com">
  <metadata>
    <name>Ainsa_baraqueira</name>
  </metadata>
  <trk>
    <name><![CDATA[Ainsa_baraqueira]]></name>
    <trkseg>
      <trkpt lat="42.41247" lon="0.13994">
        <ele>530</ele>
        <time>2015-10-18T10:36:01Z</time>
      </trkpt>
      <trkpt lat="42.41256" lon="0.14012">
        <ele>530</ele>
        <time>2015-10-18T10:36:12Z</time>
      </trkpt>
      <trkpt lat="42.41266" lon="0.14023">
        <ele>530</ele>
        <time>2015-10-18T10:36:20Z</time>
      </trkpt>
      <trkpt lat="42.41284" lon="0.1404">
        <ele>532</ele>
        <time>2015-10-18T10:36:32Z</time>
      </trkpt>
      <trkpt lat="42.4134" lon="0.14035">
        <ele>532</ele>
        <time>2015-10-18T10:36:50Z</time>
      </trkpt>
      <trkpt lat="42.41372" lon="0.14033">
        <ele>532</ele>
        <time>2015-10-18T10:37:04Z</time>
      </trkpt>
      <trkpt lat="42.41374" lon="0.1403">
        <ele>531</ele>
        <time>2015-10-18T10:37:09Z</time>
      </trkpt>
      <trkpt lat="42.4138" lon="0.1402">
        <ele>531</ele>
        <time>2015-10-18T10:37:25Z</time>
      </trkpt>
      <trkpt lat="42.41399" lon="0.13987">
        <ele>529</ele>
        <time>2015-10-18T10:37:33Z</time>
      </trkpt>
      <trkpt lat="42.41397" lon="0.13996">
        <ele>528</ele>
        <time>2015-10-18T10:37:41Z</time>
      </trkpt>
      <trkpt lat="42.41397" lon="0.14002">
        <ele>528</ele>
        <time>2015-10-18T10:40:58Z</time>
      </trkpt>
      <trkpt lat="42.41393" lon="0.13977">
        <ele>529</ele>
        <time>2015-10-18T10:45:08Z</time>
      </trkpt>
      <trkpt lat="42.41394" lon="0.13978">
        <ele>529</ele>
        <time>2015-10-18T10:45:18Z</time>
      </trkpt>
      <trkpt lat="42.41382" lon="0.14005">
        <ele>530</ele>
        <time>2015-10-18T10:45:28Z</time>
      </trkpt>
      <trkpt lat="42.41376" lon="0.14031">
        <ele>532</ele>
        <time>2015-10-18T10:45:39Z</time>
      </trkpt>
      <trkpt lat="42.41339" lon="0.14039">
        <ele>533</ele>
        <time>2015-10-18T10:45:54Z</time>
      </trkpt>
      <trkpt lat="42.41296" lon="0.14044">
        <ele>533</ele>
        <time>2015-10-18T10:46:09Z</time>
      </trkpt>
      <trkpt lat="42.4127" lon="0.14045">
        <ele>533</ele>
        <time>2015-10-18T10:46:19Z</time>
      </trkpt>
      <trkpt lat="42.41249" lon="0.14029">
        <ele>532</ele>
        <time>2015-10-18T10:46:30Z</time>
      </trkpt>
      <trkpt lat="42.41234" lon="0.14018">
        <ele>532</ele>
        <time>2015-10-18T10:46:37Z</time>
      </trkpt>
      <trkpt lat="42.41223" lon="0.13993">
        <ele>531</ele>
        <time>2015-10-18T10:46:47Z</time>
      </trkpt>
      <trkpt lat="42.41231" lon="0.13989">
        <ele>531</ele>
        <time>2015-10-18T10:46:55Z</time>
      </trkpt>
      <trkpt lat="42.41229" lon="0.13981">
        <ele>533</ele>
        <time>2015-10-18T10:49:05Z</time>
      </trkpt>
      <trkpt lat="42.41238" lon="0.13976">
        <ele>533</ele>
        <time>2015-10-18T10:49:12Z</time>
      </trkpt>
      <trkpt lat="42.41266" lon="0.13963">
        <ele>534</ele>
        <time>2015-10-18T10:49:24Z</time>
      </trkpt>
      <trkpt lat="42.41283" lon="0.13928">
        <ele>534</ele>
        <time>2015-10-18T10:49:33Z</time>
      </trkpt>
      <trkpt lat="42.41286" lon="0.13853">
        <ele>534</ele>
        <time>2015-10-18T10:49:48Z</time>
      </trkpt>
      <trkpt lat="42.41305" lon="0.13773">
        <ele>534</ele>
        <time>2015-10-18T10:50:04Z</time>
      </trkpt>
      <trkpt lat="42.41337" lon="0.13696">
        <ele>535</ele>
        <time>2015-10-18T10:50:21Z</time>
      </trkpt>
      <trkpt lat="42.41378" lon="0.13622">
        <ele>536</ele>
        <time>2015-10-18T10:50:39Z</time>
      </trkpt>
      <trkpt lat="42.41416" lon="0.13549">
        <ele>536</ele>
        <time>2015-10-18T10:50:56Z</time>
      </trkpt>
      <trkpt lat="42.4145" lon="0.13456">
        <ele>536</ele>
        <time>2015-10-18T10:51:15Z</time>
      </trkpt>
      <trkpt lat="42.41471" lon="0.13361">
        <ele>537</ele>
        <time>2015-10-18T10:51:35Z</time>
      </trkpt>
      <trkpt lat="42.4148" lon="0.13286">
        <ele>538</ele>
        <time>2015-10-18T10:51:50Z</time>
      </trkpt>
      <trkpt lat="42.4147" lon="0.13193">
        <ele>539</ele>
        <time>2015-10-18T10:52:09Z</time>
      </trkpt>
      <trkpt lat="42.41448" lon="0.13093">
        <ele>540</ele>
        <time>2015-10-18T10:52:29Z</time>
      </trkpt>
      <trkpt lat="42.41433" lon="0.13011">
        <ele>541</ele>
        <time>2015-10-18T10:52:47Z</time>
      </trkpt>
      <trkpt lat="42.41414" lon="0.12898">
        <ele>542</ele>
        <time>2015-10-18T10:53:10Z</time>
      </trkpt>
      <trkpt lat="42.41396" lon="0.12799">
        <ele>543</ele>
        <time>2015-10-18T10:53:31Z</time>
      </trkpt>
      <trkpt lat="42.41377" lon="0.12711">
        <ele>544</ele>
        <time>2015-10-18T10:53:50Z</time>
      </trkpt>
      <trkpt lat="42.41378" lon="0.12682">
        <ele>545</ele>
        <time>2015-10-18T10:53:59Z</time>
      </trkpt>
      <trkpt lat="42.41406" lon="0.12632">
        <ele>545</ele>
        <time>2015-10-18T10:54:12Z</time>
      </trkpt>
      <trkpt lat="42.41425" lon="0.12655">
        <ele>545</ele>
        <time>2015-10-18T10:54:20Z</time>
      </trkpt>
      <trkpt lat="42.41434" lon="0.12697">
        <ele>544</ele>
        <time>2015-10-18T10:54:28Z</time>
      </trkpt>
      <trkpt lat="42.41454" lon="0.12763">
        <ele>543</ele>
        <time>2015-10-18T10:54:40Z</time>
      </trkpt>
      <trkpt lat="42.41489" lon="0.12787">
        <ele>540</ele>
        <time>2015-10-18T10:54:47Z</time>
      </trkpt>
      <trkpt lat="42.41529" lon="0.12784">
        <ele>539</ele>
        <time>2015-10-18T10:54:55Z</time>
      </trkpt>
      <trkpt lat="42.41563" lon="0.12828">
        <ele>539</ele>
        <time>2015-10-18T10:55:07Z</time>
      </trkpt>
      <trkpt lat="42.41627" lon="0.12861">
        <ele>538</ele>
        <time>2015-10-18T10:55:24Z</time>
      </trkpt>
      <trkpt lat="42.41683" lon="0.12886">
        <ele>537</ele>
        <time>2015-10-18T10:55:38Z</time>
      </trkpt>
      <trkpt lat="42.41719" lon="0.12871">
        <ele>537</ele>
        <time>2015-10-18T10:55:47Z</time>
      </trkpt>
      <trkpt lat="42.41728" lon="0.12851">
        <ele>537</ele>
        <time>2015-10-18T10:55:51Z</time>
      </trkpt>
      <trkpt lat="42.41755" lon="0.12778">
        <ele>537</ele>
        <time>2015-10-18T10:56:05Z</time>
      </trkpt>
      <trkpt lat="42.41799" lon="0.1273">
        <ele>537</ele>
        <time>2015-10-18T10:56:18Z</time>
      </trkpt>
      <trkpt lat="42.41837" lon="0.12675">
        <ele>538</ele>
        <time>2015-10-18T10:56:32Z</time>
      </trkpt>
      <trkpt lat="42.41881" lon="0.12616">
        <ele>540</ele>
        <time>2015-10-18T10:56:49Z</time>
      </trkpt>
      <trkpt lat="42.41918" lon="0.12595">
        <ele>540</ele>
        <time>2015-10-18T10:57:01Z</time>
      </trkpt>
      <trkpt lat="42.41944" lon="0.1257">
        <ele>542</ele>
        <time>2015-10-18T10:57:12Z</time>
      </trkpt>
      <trkpt lat="42.41985" lon="0.125">
        <ele>542</ele>
        <time>2015-10-18T10:57:31Z</time>
      </trkpt>
      <trkpt lat="42.42023" lon="0.12437">
        <ele>543</ele>
        <time>2015-10-18T10:57:48Z</time>
      </trkpt>
      <trkpt lat="42.42062" lon="0.1237">
        <ele>544</ele>
        <time>2015-10-18T10:58:06Z</time>
      </trkpt>
      <trkpt lat="42.42097" lon="0.1231">
        <ele>544</ele>
        <time>2015-10-18T10:58:23Z</time>
      </trkpt>
      <trkpt lat="42.42128" lon="0.12255">
        <ele>545</ele>
        <time>2015-10-18T10:58:38Z</time>
      </trkpt>
      <trkpt lat="42.42156" lon="0.12203">
        <ele>546</ele>
        <time>2015-10-18T10:58:53Z</time>
      </trkpt>
      <trkpt lat="42.42183" lon="0.12154">
        <ele>546</ele>
        <time>2015-10-18T10:59:07Z</time>
      </trkpt>
      <trkpt lat="42.42219" lon="0.12092">
        <ele>547</ele>
        <time>2015-10-18T10:59:24Z</time>
      </trkpt>
      <trkpt lat="42.42263" lon="0.12012">
        <ele>548</ele>
        <time>2015-10-18T10:59:45Z</time>
      </trkpt>
      <trkpt lat="42.42305" lon="0.11938">
        <ele>548</ele>
        <time>2015-10-18T11:00:04Z</time>
      </trkpt>
      <trkpt lat="42.42349" lon="0.11865">
        <ele>549</ele>
        <time>2015-10-18T11:00:23Z</time>
      </trkpt>
      <trkpt lat="42.42387" lon="0.11817">
        <ele>549</ele>
        <time>2015-10-18T11:00:37Z</time>
      </trkpt>
      <trkpt lat="42.42448" lon="0.11764">
        <ele>550</ele>
        <time>2015-10-18T11:00:56Z</time>
      </trkpt>
      <trkpt lat="42.42502" lon="0.11717">
        <ele>551</ele>
        <time>2015-10-18T11:01:13Z</time>
      </trkpt>
      <trkpt lat="42.42559" lon="0.11653">
        <ele>552</ele>
        <time>2015-10-18T11:01:33Z</time>
      </trkpt>
      <trkpt lat="42.42619" lon="0.11585">
        <ele>552</ele>
        <time>2015-10-18T11:01:54Z</time>
      </trkpt>
      <trkpt lat="42.4268" lon="0.11518">
        <ele>553</ele>
        <time>2015-10-18T11:02:15Z</time>
      </trkpt>
      <trkpt lat="42.42721" lon="0.11471">
        <ele>553</ele>
        <time>2015-10-18T11:02:29Z</time>
      </trkpt>
      <trkpt lat="42.42764" lon="0.11423">
        <ele>553</ele>
        <time>2015-10-18T11:02:45Z</time>
      </trkpt>
      <trkpt lat="42.42801" lon="0.11368">
        <ele>554</ele>
        <time>2015-10-18T11:02:59Z</time>
      </trkpt>
      <trkpt lat="42.42836" lon="0.11301">
        <ele>555</ele>
        <time>2015-10-18T11:03:15Z</time>
      </trkpt>
      <trkpt lat="42.42864" lon="0.11209">
        <ele>555</ele>
        <time>2015-10-18T11:03:35Z</time>
      </trkpt>
      <trkpt lat="42.42884" lon="0.11115">
        <ele>556</ele>
        <time>2015-10-18T11:03:54Z</time>
      </trkpt>
      <trkpt lat="42.42879" lon="0.1105">
        <ele>556</ele>
        <time>2015-10-18T11:04:07Z</time>
      </trkpt>
      <trkpt lat="42.42855" lon="0.10992">
        <ele>557</ele>
        <time>2015-10-18T11:04:20Z</time>
      </trkpt>
      <trkpt lat="42.42842" lon="0.10915">
        <ele>557</ele>
        <time>2015-10-18T11:04:35Z</time>
      </trkpt>
      <trkpt lat="42.42838" lon="0.10812">
        <ele>558</ele>
        <time>2015-10-18T11:04:55Z</time>
      </trkpt>
      <trkpt lat="42.42838" lon="0.10729">
        <ele>558</ele>
        <time>2015-10-18T11:05:11Z</time>
      </trkpt>
      <trkpt lat="42.42835" lon="0.10648">
        <ele>559</ele>
        <time>2015-10-18T11:05:26Z</time>
      </trkpt>
      <trkpt lat="42.4284" lon="0.10568">
        <ele>559</ele>
        <time>2015-10-18T11:05:42Z</time>
      </trkpt>
      <trkpt lat="42.42848" lon="0.105">
        <ele>560</ele>
        <time>2015-10-18T11:05:55Z</time>
      </trkpt>
      <trkpt lat="42.42858" lon="0.10421">
        <ele>561</ele>
        <time>2015-10-18T11:06:11Z</time>
      </trkpt>
      <trkpt lat="42.4287" lon="0.10331">
        <ele>561</ele>
        <time>2015-10-18T11:06:29Z</time>
      </trkpt>
      <trkpt lat="42.42876" lon="0.10242">
        <ele>562</ele>
        <time>2015-10-18T11:06:46Z</time>
      </trkpt>
      <trkpt lat="42.42862" lon="0.10224">
        <ele>562</ele>
        <time>2015-10-18T11:06:52Z</time>
      </trkpt>
      <trkpt lat="42.42862" lon="0.10182">
        <ele>562</ele>
        <time>2015-10-18T11:07:02Z</time>
      </trkpt>
      <trkpt lat="42.42858" lon="0.10145">
        <ele>562</ele>
        <time>2015-10-18T11:07:10Z</time>
      </trkpt>
      <trkpt lat="42.42835" lon="0.10102">
        <ele>562</ele>
        <time>2015-10-18T11:07:21Z</time>
      </trkpt>
      <trkpt lat="42.42825" lon="0.10018">
        <ele>562</ele>
        <time>2015-10-18T11:07:36Z</time>
      </trkpt>
      <trkpt lat="42.42825" lon="0.09958">
        <ele>562</ele>
        <time>2015-10-18T11:07:47Z</time>
      </trkpt>
      <trkpt lat="42.42822" lon="0.09906">
        <ele>563</ele>
        <time>2015-10-18T11:07:57Z</time>
      </trkpt>
      <trkpt lat="42.42825" lon="0.0984">
        <ele>564</ele>
        <time>2015-10-18T11:08:11Z</time>
      </trkpt>
      <trkpt lat="42.42822" lon="0.098">
        <ele>564</ele>
        <time>2015-10-18T11:08:23Z</time>
      </trkpt>
      <trkpt lat="42.42826" lon="0.09771">
        <ele>564</ele>
        <time>2015-10-18T11:08:33Z</time>
      </trkpt>
      <trkpt lat="42.42829" lon="0.09762">
        <ele>564</ele>
        <time>2015-10-18T11:08:48Z</time>
      </trkpt>
      <trkpt lat="42.42832" lon="0.09764">
        <ele>561</ele>
        <time>2015-10-18T11:35:04Z</time>
      </trkpt>
      <trkpt lat="42.42827" lon="0.09778">
        <ele>562</ele>
        <time>2015-10-18T11:35:16Z</time>
      </trkpt>
      <trkpt lat="42.42821" lon="0.09786">
        <ele>562</ele>
        <time>2015-10-18T11:35:22Z</time>
      </trkpt>
      <trkpt lat="42.42813" lon="0.0977">
        <ele>562</ele>
        <time>2015-10-18T11:35:31Z</time>
      </trkpt>
      <trkpt lat="42.42822" lon="0.09744">
        <ele>564</ele>
        <time>2015-10-18T11:35:44Z</time>
      </trkpt>
      <trkpt lat="42.42821" lon="0.09695">
        <ele>564</ele>
        <time>2015-10-18T11:36:00Z</time>
      </trkpt>
      <trkpt lat="42.42808" lon="0.09648">
        <ele>565</ele>
        <time>2015-10-18T11:36:15Z</time>
      </trkpt>
      <trkpt lat="42.42791" lon="0.09604">
        <ele>566</ele>
        <time>2015-10-18T11:36:30Z</time>
      </trkpt>
      <trkpt lat="42.42786" lon="0.09555">
        <ele>566</ele>
        <time>2015-10-18T11:36:43Z</time>
      </trkpt>
      <trkpt lat="42.42774" lon="0.09487">
        <ele>566</ele>
        <time>2015-10-18T11:36:59Z</time>
      </trkpt>
      <trkpt lat="42.4277" lon="0.09412">
        <ele>567</ele>
        <time>2015-10-18T11:37:17Z</time>
      </trkpt>
      <trkpt lat="42.42771" lon="0.09361">
        <ele>569</ele>
        <time>2015-10-18T11:37:31Z</time>
      </trkpt>
      <trkpt lat="42.42783" lon="0.09305">
        <ele>569</ele>
        <time>2015-10-18T11:37:45Z</time>
      </trkpt>
      <trkpt lat="42.4282" lon="0.0923">
        <ele>568</ele>
        <time>2015-10-18T11:38:01Z</time>
      </trkpt>
      <trkpt lat="42.42857" lon="0.09179">
        <ele>568</ele>
        <time>2015-10-18T11:38:15Z</time>
      </trkpt>
      <trkpt lat="42.42898" lon="0.09123">
        <ele>568</ele>
        <time>2015-10-18T11:38:32Z</time>
      </trkpt>
      <trkpt lat="42.42934" lon="0.09091">
        <ele>567</ele>
        <time>2015-10-18T11:38:45Z</time>
      </trkpt>
      <trkpt lat="42.42973" lon="0.09043">
        <ele>566</ele>
        <time>2015-10-18T11:38:59Z</time>
      </trkpt>
      <trkpt lat="42.42996" lon="0.09018">
        <ele>566</ele>
        <time>2015-10-18T11:39:06Z</time>
      </trkpt>
      <trkpt lat="42.43017" lon="0.08975">
        <ele>566</ele>
        <time>2015-10-18T11:39:16Z</time>
      </trkpt>
      <trkpt lat="42.43049" lon="0.08907">
        <ele>567</ele>
        <time>2015-10-18T11:39:32Z</time>
      </trkpt>
      <trkpt lat="42.43071" lon="0.08861">
        <ele>567</ele>
        <time>2015-10-18T11:39:45Z</time>
      </trkpt>
      <trkpt lat="42.43089" lon="0.08841">
        <ele>567</ele>
        <time>2015-10-18T11:39:55Z</time>
      </trkpt>
      <trkpt lat="42.43114" lon="0.08807">
        <ele>567</ele>
        <time>2015-10-18T11:40:07Z</time>
      </trkpt>
      <trkpt lat="42.43143" lon="0.08765">
        <ele>568</ele>
        <time>2015-10-18T11:40:20Z</time>
      </trkpt>
      <trkpt lat="42.43176" lon="0.08752">
        <ele>569</ele>
        <time>2015-10-18T11:40:30Z</time>
      </trkpt>
      <trkpt lat="42.432" lon="0.08715">
        <ele>570</ele>
        <time>2015-10-18T11:40:39Z</time>
      </trkpt>
      <trkpt lat="42.43234" lon="0.08653">
        <ele>570</ele>
        <time>2015-10-18T11:40:54Z</time>
      </trkpt>
      <trkpt lat="42.43275" lon="0.08575">
        <ele>571</ele>
        <time>2015-10-18T11:41:13Z</time>
      </trkpt>
      <trkpt lat="42.433" lon="0.08524">
        <ele>571</ele>
        <time>2015-10-18T11:41:27Z</time>
      </trkpt>
      <trkpt lat="42.43325" lon="0.08487">
        <ele>571</ele>
        <time>2015-10-18T11:41:39Z</time>
      </trkpt>
      <trkpt lat="42.43325" lon="0.08462">
        <ele>571</ele>
        <time>2015-10-18T11:41:50Z</time>
      </trkpt>
      <trkpt lat="42.43282" lon="0.08425">
        <ele>572</ele>
        <time>2015-10-18T11:42:04Z</time>
      </trkpt>
      <trkpt lat="42.43265" lon="0.08398">
        <ele>573</ele>
        <time>2015-10-18T11:42:13Z</time>
      </trkpt>
      <trkpt lat="42.43285" lon="0.08362">
        <ele>574</ele>
        <time>2015-10-18T11:42:24Z</time>
      </trkpt>
      <trkpt lat="42.43322" lon="0.08292">
        <ele>575</ele>
        <time>2015-10-18T11:42:41Z</time>
      </trkpt>
      <trkpt lat="42.43376" lon="0.08191">
        <ele>575</ele>
        <time>2015-10-18T11:43:03Z</time>
      </trkpt>
      <trkpt lat="42.43414" lon="0.0812">
        <ele>576</ele>
        <time>2015-10-18T11:43:19Z</time>
      </trkpt>
      <trkpt lat="42.4345" lon="0.0805">
        <ele>577</ele>
        <time>2015-10-18T11:43:34Z</time>
      </trkpt>
      <trkpt lat="42.43487" lon="0.07978">
        <ele>577</ele>
        <time>2015-10-18T11:43:50Z</time>
      </trkpt>
      <trkpt lat="42.43517" lon="0.07919">
        <ele>577</ele>
        <time>2015-10-18T11:44:06Z</time>
      </trkpt>
      <trkpt lat="42.43539" lon="0.07875">
        <ele>578</ele>
        <time>2015-10-18T11:44:19Z</time>
      </trkpt>
      <trkpt lat="42.43554" lon="0.07852">
        <ele>578</ele>
        <time>2015-10-18T11:44:28Z</time>
      </trkpt>
      <trkpt lat="42.43563" lon="0.07855">
        <ele>578</ele>
        <time>2015-10-18T11:44:38Z</time>
      </trkpt>
      <trkpt lat="42.4355" lon="0.0785">
        <ele>578</ele>
        <time>2015-10-18T11:44:43Z</time>
      </trkpt>
      <trkpt lat="42.43552" lon="0.07815">
        <ele>578</ele>
        <time>2015-10-18T11:44:54Z</time>
      </trkpt>
      <trkpt lat="42.43563" lon="0.07801">
        <ele>578</ele>
        <time>2015-10-18T11:45:04Z</time>
      </trkpt>
      <trkpt lat="42.43555" lon="0.0779">
        <ele>578</ele>
        <time>2015-10-18T11:45:12Z</time>
      </trkpt>
      <trkpt lat="42.43545" lon="0.07802">
        <ele>579</ele>
        <time>2015-10-18T11:45:22Z</time>
      </trkpt>
      <trkpt lat="42.43555" lon="0.07807">
        <ele>578</ele>
        <time>2015-10-18T11:45:27Z</time>
      </trkpt>
      <trkpt lat="42.43575" lon="0.07807">
        <ele>578</ele>
        <time>2015-10-18T11:45:39Z</time>
      </trkpt>
      <trkpt lat="42.43579" lon="0.0781">
        <ele>578</ele>
        <time>2015-10-18T11:45:42Z</time>
      </trkpt>
      <trkpt lat="42.43565" lon="0.0783">
        <ele>578</ele>
        <time>2015-10-18T11:45:54Z</time>
      </trkpt>
      <trkpt lat="42.43546" lon="0.07848">
        <ele>578</ele>
        <time>2015-10-18T11:46:05Z</time>
      </trkpt>
      <trkpt lat="42.43572" lon="0.07858">
        <ele>579</ele>
        <time>2015-10-18T11:46:17Z</time>
      </trkpt>
      <trkpt lat="42.4361" lon="0.07883">
        <ele>581</ele>
        <time>2015-10-18T11:46:34Z</time>
      </trkpt>
      <trkpt lat="42.43643" lon="0.07908">
        <ele>583</ele>
        <time>2015-10-18T11:46:49Z</time>
      </trkpt>
      <trkpt lat="42.43669" lon="0.07925">
        <ele>584</ele>
        <time>2015-10-18T11:47:01Z</time>
      </trkpt>
      <trkpt lat="42.43696" lon="0.07892">
        <ele>584</ele>
        <time>2015-10-18T11:47:10Z</time>
      </trkpt>
      <trkpt lat="42.43757" lon="0.07803">
        <ele>584</ele>
        <time>2015-10-18T11:47:29Z</time>
      </trkpt>
      <trkpt lat="42.4384" lon="0.07682">
        <ele>584</ele>
        <time>2015-10-18T11:47:53Z</time>
      </trkpt>
      <trkpt lat="42.43908" lon="0.07566">
        <ele>585</ele>
        <time>2015-10-18T11:48:16Z</time>
      </trkpt>
      <trkpt lat="42.43973" lon="0.07456">
        <ele>587</ele>
        <time>2015-10-18T11:48:38Z</time>
      </trkpt>
      <trkpt lat="42.44039" lon="0.07344">
        <ele>587</ele>
        <time>2015-10-18T11:49:00Z</time>
      </trkpt>
      <trkpt lat="42.44079" lon="0.07289">
        <ele>587</ele>
        <time>2015-10-18T11:49:13Z</time>
      </trkpt>
      <trkpt lat="42.44109" lon="0.07324">
        <ele>589</ele>
        <time>2015-10-18T11:49:26Z</time>
      </trkpt>
      <trkpt lat="42.44148" lon="0.07366">
        <ele>591</ele>
        <time>2015-10-18T11:49:43Z</time>
      </trkpt>
      <trkpt lat="42.44172" lon="0.07393">
        <ele>594</ele>
        <time>2015-10-18T11:49:59Z</time>
      </trkpt>
      <trkpt lat="42.44192" lon="0.07417">
        <ele>596</ele>
        <time>2015-10-18T11:50:12Z</time>
      </trkpt>
      <trkpt lat="42.44181" lon="0.07458">
        <ele>597</ele>
        <time>2015-10-18T11:50:25Z</time>
      </trkpt>
      <trkpt lat="42.44172" lon="0.07489">
        <ele>597</ele>
        <time>2015-10-18T11:50:37Z</time>
      </trkpt>
      <trkpt lat="42.44178" lon="0.07505">
        <ele>597</ele>
        <time>2015-10-18T11:50:44Z</time>
      </trkpt>
      <trkpt lat="42.44192" lon="0.07519">
        <ele>597</ele>
        <time>2015-10-18T11:50:54Z</time>
      </trkpt>
      <trkpt lat="42.44203" lon="0.07527">
        <ele>599</ele>
        <time>2015-10-18T11:51:05Z</time>
      </trkpt>
      <trkpt lat="42.44224" lon="0.07541">
        <ele>601</ele>
        <time>2015-10-18T11:51:22Z</time>
      </trkpt>
      <trkpt lat="42.44235" lon="0.0755">
        <ele>604</ele>
        <time>2015-10-18T11:51:35Z</time>
      </trkpt>
      <trkpt lat="42.44247" lon="0.07558">
        <ele>607</ele>
        <time>2015-10-18T11:51:48Z</time>
      </trkpt>
      <trkpt lat="42.44252" lon="0.07567">
        <ele>608</ele>
        <time>2015-10-18T11:51:56Z</time>
      </trkpt>
      <trkpt lat="42.44267" lon="0.07567">
        <ele>611</ele>
        <time>2015-10-18T11:52:10Z</time>
      </trkpt>
      <trkpt lat="42.4428" lon="0.07542">
        <ele>613</ele>
        <time>2015-10-18T11:52:27Z</time>
      </trkpt>
      <trkpt lat="42.44289" lon="0.07523">
        <ele>613</ele>
        <time>2015-10-18T11:52:38Z</time>
      </trkpt>
      <trkpt lat="42.44297" lon="0.0753">
        <ele>614</ele>
        <time>2015-10-18T11:52:49Z</time>
      </trkpt>
      <trkpt lat="42.44299" lon="0.07547">
        <ele>617</ele>
        <time>2015-10-18T11:53:02Z</time>
      </trkpt>
      <trkpt lat="42.44302" lon="0.0756">
        <ele>620</ele>
        <time>2015-10-18T11:53:14Z</time>
      </trkpt>
      <trkpt lat="42.44306" lon="0.07575">
        <ele>623</ele>
        <time>2015-10-18T11:53:27Z</time>
      </trkpt>
      <trkpt lat="42.4431" lon="0.07592">
        <ele>625</ele>
        <time>2015-10-18T11:53:41Z</time>
      </trkpt>
      <trkpt lat="42.44314" lon="0.07607">
        <ele>628</ele>
        <time>2015-10-18T11:53:55Z</time>
      </trkpt>
      <trkpt lat="42.44317" lon="0.07618">
        <ele>630</ele>
        <time>2015-10-18T11:54:06Z</time>
      </trkpt>
      <trkpt lat="42.44319" lon="0.07624">
        <ele>631</ele>
        <time>2015-10-18T11:54:12Z</time>
      </trkpt>
      <trkpt lat="42.44319" lon="0.07637">
        <ele>633</ele>
        <time>2015-10-18T11:54:24Z</time>
      </trkpt>
      <trkpt lat="42.44316" lon="0.07652">
        <ele>636</ele>
        <time>2015-10-18T11:54:36Z</time>
      </trkpt>
      <trkpt lat="42.44315" lon="0.07679">
        <ele>638</ele>
        <time>2015-10-18T11:54:54Z</time>
      </trkpt>
      <trkpt lat="42.44319" lon="0.07692">
        <ele>639</ele>
        <time>2015-10-18T11:55:03Z</time>
      </trkpt>
      <trkpt lat="42.44325" lon="0.07706">
        <ele>640</ele>
        <time>2015-10-18T11:55:13Z</time>
      </trkpt>
      <trkpt lat="42.44336" lon="0.07727">
        <ele>643</ele>
        <time>2015-10-18T11:55:31Z</time>
      </trkpt>
      <trkpt lat="42.44348" lon="0.07745">
        <ele>646</ele>
        <time>2015-10-18T11:55:46Z</time>
      </trkpt>
      <trkpt lat="42.44354" lon="0.07759">
        <ele>647</ele>
        <time>2015-10-18T11:55:56Z</time>
      </trkpt>
      <trkpt lat="42.44361" lon="0.07782">
        <ele>650</ele>
        <time>2015-10-18T11:56:12Z</time>
      </trkpt>
      <trkpt lat="42.44365" lon="0.07805">
        <ele>652</ele>
        <time>2015-10-18T11:56:30Z</time>
      </trkpt>
      <trkpt lat="42.44374" lon="0.07822">
        <ele>655</ele>
        <time>2015-10-18T11:56:44Z</time>
      </trkpt>
      <trkpt lat="42.44379" lon="0.07834">
        <ele>658</ele>
        <time>2015-10-18T11:56:57Z</time>
      </trkpt>
      <trkpt lat="42.44387" lon="0.07847">
        <ele>661</ele>
        <time>2015-10-18T11:57:15Z</time>
      </trkpt>
      <trkpt lat="42.44391" lon="0.07857">
        <ele>663</ele>
        <time>2015-10-18T11:57:30Z</time>
      </trkpt>
      <trkpt lat="42.44398" lon="0.07875">
        <ele>665</ele>
        <time>2015-10-18T11:57:46Z</time>
      </trkpt>
      <trkpt lat="42.44413" lon="0.07901">
        <ele>667</ele>
        <time>2015-10-18T11:58:04Z</time>
      </trkpt>
      <trkpt lat="42.44428" lon="0.0793">
        <ele>668</ele>
        <time>2015-10-18T11:58:22Z</time>
      </trkpt>
      <trkpt lat="42.44445" lon="0.07955">
        <ele>670</ele>
        <time>2015-10-18T11:58:41Z</time>
      </trkpt>
      <trkpt lat="42.44459" lon="0.07982">
        <ele>672</ele>
        <time>2015-10-18T11:58:59Z</time>
      </trkpt>
      <trkpt lat="42.44467" lon="0.08">
        <ele>672</ele>
        <time>2015-10-18T11:59:10Z</time>
      </trkpt>
      <trkpt lat="42.44471" lon="0.0802">
        <ele>673</ele>
        <time>2015-10-18T11:59:23Z</time>
      </trkpt>
      <trkpt lat="42.44478" lon="0.08039">
        <ele>675</ele>
        <time>2015-10-18T11:59:35Z</time>
      </trkpt>
      <trkpt lat="42.44483" lon="0.08045">
        <ele>676</ele>
        <time>2015-10-18T11:59:48Z</time>
      </trkpt>
      <trkpt lat="42.44499" lon="0.08069">
        <ele>676</ele>
        <time>2015-10-18T11:59:58Z</time>
      </trkpt>
      <trkpt lat="42.44498" lon="0.08085">
        <ele>675</ele>
        <time>2015-10-18T12:00:03Z</time>
      </trkpt>
      <trkpt lat="42.44492" lon="0.08097">
        <ele>676</ele>
        <time>2015-10-18T12:00:13Z</time>
      </trkpt>
      <trkpt lat="42.44493" lon="0.08112">
        <ele>678</ele>
        <time>2015-10-18T12:00:27Z</time>
      </trkpt>
      <trkpt lat="42.44496" lon="0.08139">
        <ele>680</ele>
        <time>2015-10-18T12:00:44Z</time>
      </trkpt>
      <trkpt lat="42.44506" lon="0.08165">
        <ele>681</ele>
        <time>2015-10-18T12:00:58Z</time>
      </trkpt>
      <trkpt lat="42.44512" lon="0.08185">
        <ele>682</ele>
        <time>2015-10-18T12:01:09Z</time>
      </trkpt>
      <trkpt lat="42.44514" lon="0.08209">
        <ele>682</ele>
        <time>2015-10-18T12:01:23Z</time>
      </trkpt>
      <trkpt lat="42.44518" lon="0.08227">
        <ele>685</ele>
        <time>2015-10-18T12:01:35Z</time>
      </trkpt>
      <trkpt lat="42.44521" lon="0.08236">
        <ele>686</ele>
        <time>2015-10-18T12:01:49Z</time>
      </trkpt>
      <trkpt lat="42.44527" lon="0.08251">
        <ele>688</ele>
        <time>2015-10-18T12:02:07Z</time>
      </trkpt>
      <trkpt lat="42.4453" lon="0.08262">
        <ele>690</ele>
        <time>2015-10-18T12:02:19Z</time>
      </trkpt>
      <trkpt lat="42.44531" lon="0.08282">
        <ele>691</ele>
        <time>2015-10-18T12:02:30Z</time>
      </trkpt>
      <trkpt lat="42.44534" lon="0.08307">
        <ele>692</ele>
        <time>2015-10-18T12:02:41Z</time>
      </trkpt>
      <trkpt lat="42.44541" lon="0.08339">
        <ele>695</ele>
        <time>2015-10-18T12:02:58Z</time>
      </trkpt>
      <trkpt lat="42.44544" lon="0.08374">
        <ele>696</ele>
        <time>2015-10-18T12:03:14Z</time>
      </trkpt>
      <trkpt lat="42.44544" lon="0.08395">
        <ele>696</ele>
        <time>2015-10-18T12:03:21Z</time>
      </trkpt>
      <trkpt lat="42.44539" lon="0.08436">
        <ele>694</ele>
        <time>2015-10-18T12:03:31Z</time>
      </trkpt>
      <trkpt lat="42.44539" lon="0.08451">
        <ele>692</ele>
        <time>2015-10-18T12:03:43Z</time>
      </trkpt>
      <trkpt lat="42.44534" lon="0.08459">
        <ele>692</ele>
        <time>2015-10-18T12:03:54Z</time>
      </trkpt>
      <trkpt lat="42.44525" lon="0.08465">
        <ele>692</ele>
        <time>2015-10-18T12:04:02Z</time>
      </trkpt>
      <trkpt lat="42.44523" lon="0.0848">
        <ele>694</ele>
        <time>2015-10-18T12:04:10Z</time>
      </trkpt>
      <trkpt lat="42.44522" lon="0.08495">
        <ele>696</ele>
        <time>2015-10-18T12:04:23Z</time>
      </trkpt>
      <trkpt lat="42.44524" lon="0.0852">
        <ele>698</ele>
        <time>2015-10-18T12:04:43Z</time>
      </trkpt>
      <trkpt lat="42.44528" lon="0.0854">
        <ele>700</ele>
        <time>2015-10-18T12:05:01Z</time>
      </trkpt>
      <trkpt lat="42.4453" lon="0.08553">
        <ele>702</ele>
        <time>2015-10-18T12:05:11Z</time>
      </trkpt>
      <trkpt lat="42.44535" lon="0.0857">
        <ele>704</ele>
        <time>2015-10-18T12:05:27Z</time>
      </trkpt>
      <trkpt lat="42.44539" lon="0.08589">
        <ele>707</ele>
        <time>2015-10-18T12:05:44Z</time>
      </trkpt>
      <trkpt lat="42.4454" lon="0.08607">
        <ele>709</ele>
        <time>2015-10-18T12:06:01Z</time>
      </trkpt>
      <trkpt lat="42.4454" lon="0.08615">
        <ele>711</ele>
        <time>2015-10-18T12:06:18Z</time>
      </trkpt>
      <trkpt lat="42.44542" lon="0.08619">
        <ele>711</ele>
        <time>2015-10-18T12:06:36Z</time>
      </trkpt>
      <trkpt lat="42.44539" lon="0.08637">
        <ele>711</ele>
        <time>2015-10-18T12:06:45Z</time>
      </trkpt>
      <trkpt lat="42.44529" lon="0.08668">
        <ele>712</ele>
        <time>2015-10-18T12:06:55Z</time>
      </trkpt>
      <trkpt lat="42.44523" lon="0.08707">
        <ele>711</ele>
        <time>2015-10-18T12:07:03Z</time>
      </trkpt>
      <trkpt lat="42.44511" lon="0.08747">
        <ele>711</ele>
        <time>2015-10-18T12:07:12Z</time>
      </trkpt>
      <trkpt lat="42.4451" lon="0.08786">
        <ele>710</ele>
        <time>2015-10-18T12:07:24Z</time>
      </trkpt>
      <trkpt lat="42.44506" lon="0.08814">
        <ele>711</ele>
        <time>2015-10-18T12:07:35Z</time>
      </trkpt>
      <trkpt lat="42.44503" lon="0.0884">
        <ele>714</ele>
        <time>2015-10-18T12:07:48Z</time>
      </trkpt>
      <trkpt lat="42.44502" lon="0.0887">
        <ele>716</ele>
        <time>2015-10-18T12:08:02Z</time>
      </trkpt>
      <trkpt lat="42.44501" lon="0.08899">
        <ele>717</ele>
        <time>2015-10-18T12:08:16Z</time>
      </trkpt>
      <trkpt lat="42.445" lon="0.08924">
        <ele>719</ele>
        <time>2015-10-18T12:08:31Z</time>
      </trkpt>
      <trkpt lat="42.44503" lon="0.0894">
        <ele>721</ele>
        <time>2015-10-18T12:08:42Z</time>
      </trkpt>
      <trkpt lat="42.44508" lon="0.08965">
        <ele>723</ele>
        <time>2015-10-18T12:08:55Z</time>
      </trkpt>
      <trkpt lat="42.44514" lon="0.08985">
        <ele>725</ele>
        <time>2015-10-18T12:09:08Z</time>
      </trkpt>
      <trkpt lat="42.44519" lon="0.08998">
        <ele>727</ele>
        <time>2015-10-18T12:09:23Z</time>
      </trkpt>
      <trkpt lat="42.44524" lon="0.09004">
        <ele>728</ele>
        <time>2015-10-18T12:09:33Z</time>
      </trkpt>
      <trkpt lat="42.44526" lon="0.09014">
        <ele>729</ele>
        <time>2015-10-18T12:09:43Z</time>
      </trkpt>
      <trkpt lat="42.44531" lon="0.09025">
        <ele>731</ele>
        <time>2015-10-18T12:09:58Z</time>
      </trkpt>
      <trkpt lat="42.44533" lon="0.09029">
        <ele>732</ele>
        <time>2015-10-18T12:10:13Z</time>
      </trkpt>
      <trkpt lat="42.44531" lon="0.09035">
        <ele>733</ele>
        <time>2015-10-18T12:13:31Z</time>
      </trkpt>
      <trkpt lat="42.44533" lon="0.09058">
        <ele>733</ele>
        <time>2015-10-18T12:13:46Z</time>
      </trkpt>
      <trkpt lat="42.44536" lon="0.09096">
        <ele>735</ele>
        <time>2015-10-18T12:14:03Z</time>
      </trkpt>
      <trkpt lat="42.44542" lon="0.09133">
        <ele>738</ele>
        <time>2015-10-18T12:14:21Z</time>
      </trkpt>
      <trkpt lat="42.44543" lon="0.09143">
        <ele>738</ele>
        <time>2015-10-18T12:14:40Z</time>
      </trkpt>
      <trkpt lat="42.44524" lon="0.09138">
        <ele>737</ele>
        <time>2015-10-18T12:14:48Z</time>
      </trkpt>
      <trkpt lat="42.44493" lon="0.09133">
        <ele>734</ele>
        <time>2015-10-18T12:14:54Z</time>
      </trkpt>
      <trkpt lat="42.44458" lon="0.0913">
        <ele>731</ele>
        <time>2015-10-18T12:15:01Z</time>
      </trkpt>
      <trkpt lat="42.44444" lon="0.09138">
        <ele>732</ele>
        <time>2015-10-18T12:15:11Z</time>
      </trkpt>
      <trkpt lat="42.44431" lon="0.09137">
        <ele>733</ele>
        <time>2015-10-18T12:15:19Z</time>
      </trkpt>
      <trkpt lat="42.44428" lon="0.09135">
        <ele>734</ele>
        <time>2015-10-18T12:15:26Z</time>
      </trkpt>
      <trkpt lat="42.4441" lon="0.09106">
        <ele>736</ele>
        <time>2015-10-18T12:15:42Z</time>
      </trkpt>
      <trkpt lat="42.44395" lon="0.09099">
        <ele>738</ele>
        <time>2015-10-18T12:15:54Z</time>
      </trkpt>
      <trkpt lat="42.44389" lon="0.09101">
        <ele>739</ele>
        <time>2015-10-18T12:16:07Z</time>
      </trkpt>
      <trkpt lat="42.44382" lon="0.09105">
        <ele>742</ele>
        <time>2015-10-18T12:16:24Z</time>
      </trkpt>
      <trkpt lat="42.4438" lon="0.09104">
        <ele>742</ele>
        <time>2015-10-18T12:16:37Z</time>
      </trkpt>
      <trkpt lat="42.44373" lon="0.09104">
        <ele>744</ele>
        <time>2015-10-18T12:16:51Z</time>
      </trkpt>
      <trkpt lat="42.44367" lon="0.09116">
        <ele>746</ele>
        <time>2015-10-18T12:17:07Z</time>
      </trkpt>
      <trkpt lat="42.44364" lon="0.09124">
        <ele>748</ele>
        <time>2015-10-18T12:17:27Z</time>
      </trkpt>
      <trkpt lat="42.44362" lon="0.09128">
        <ele>748</ele>
        <time>2015-10-18T12:17:42Z</time>
      </trkpt>
      <trkpt lat="42.44364" lon="0.09126">
        <ele>748</ele>
        <time>2015-10-18T12:19:30Z</time>
      </trkpt>
      <trkpt lat="42.44356" lon="0.09142">
        <ele>747</ele>
        <time>2015-10-18T12:19:40Z</time>
      </trkpt>
      <trkpt lat="42.44343" lon="0.09151">
        <ele>746</ele>
        <time>2015-10-18T12:19:52Z</time>
      </trkpt>
      <trkpt lat="42.44344" lon="0.09152">
        <ele>746</ele>
        <time>2015-10-18T12:20:08Z</time>
      </trkpt>
      <trkpt lat="42.44335" lon="0.09169">
        <ele>746</ele>
        <time>2015-10-18T12:20:21Z</time>
      </trkpt>
      <trkpt lat="42.44334" lon="0.09173">
        <ele>746</ele>
        <time>2015-10-18T12:20:33Z</time>
      </trkpt>
      <trkpt lat="42.44337" lon="0.0918">
        <ele>747</ele>
        <time>2015-10-18T12:20:44Z</time>
      </trkpt>
      <trkpt lat="42.44343" lon="0.09194">
        <ele>748</ele>
        <time>2015-10-18T12:20:58Z</time>
      </trkpt>
      <trkpt lat="42.44345" lon="0.09213">
        <ele>750</ele>
        <time>2015-10-18T12:21:09Z</time>
      </trkpt>
      <trkpt lat="42.44325" lon="0.09229">
        <ele>751</ele>
        <time>2015-10-18T12:21:21Z</time>
      </trkpt>
      <trkpt lat="42.44313" lon="0.09251">
        <ele>752</ele>
        <time>2015-10-18T12:21:33Z</time>
      </trkpt>
      <trkpt lat="42.44303" lon="0.09278">
        <ele>753</ele>
        <time>2015-10-18T12:21:45Z</time>
      </trkpt>
      <trkpt lat="42.44284" lon="0.09307">
        <ele>753</ele>
        <time>2015-10-18T12:21:58Z</time>
      </trkpt>
      <trkpt lat="42.44267" lon="0.09316">
        <ele>753</ele>
        <time>2015-10-18T12:22:07Z</time>
      </trkpt>
      <trkpt lat="42.44259" lon="0.09332">
        <ele>754</ele>
        <time>2015-10-18T12:22:14Z</time>
      </trkpt>
      <trkpt lat="42.4426" lon="0.0935">
        <ele>755</ele>
        <time>2015-10-18T12:22:21Z</time>
      </trkpt>
      <trkpt lat="42.44258" lon="0.09377">
        <ele>755</ele>
        <time>2015-10-18T12:22:31Z</time>
      </trkpt>
      <trkpt lat="42.44239" lon="0.09398">
        <ele>756</ele>
        <time>2015-10-18T12:22:42Z</time>
      </trkpt>
      <trkpt lat="42.44224" lon="0.09426">
        <ele>755</ele>
        <time>2015-10-18T12:22:53Z</time>
      </trkpt>
      <trkpt lat="42.44232" lon="0.09442">
        <ele>757</ele>
        <time>2015-10-18T12:23:01Z</time>
      </trkpt>
      <trkpt lat="42.44232" lon="0.09476">
        <ele>760</ele>
        <time>2015-10-18T12:23:14Z</time>
      </trkpt>
      <trkpt lat="42.44219" lon="0.09496">
        <ele>762</ele>
        <time>2015-10-18T12:23:27Z</time>
      </trkpt>
      <trkpt lat="42.44206" lon="0.09509">
        <ele>763</ele>
        <time>2015-10-18T12:23:35Z</time>
      </trkpt>
      <trkpt lat="42.44186" lon="0.09527">
        <ele>762</ele>
        <time>2015-10-18T12:23:41Z</time>
      </trkpt>
      <trkpt lat="42.44157" lon="0.09559">
        <ele>760</ele>
        <time>2015-10-18T12:23:50Z</time>
      </trkpt>
      <trkpt lat="42.44139" lon="0.09581">
        <ele>757</ele>
        <time>2015-10-18T12:23:58Z</time>
      </trkpt>
      <trkpt lat="42.44127" lon="0.0958">
        <ele>756</ele>
        <time>2015-10-18T12:24:02Z</time>
      </trkpt>
      <trkpt lat="42.44096" lon="0.09581">
        <ele>749</ele>
        <time>2015-10-18T12:24:10Z</time>
      </trkpt>
      <trkpt lat="42.44105" lon="0.09628">
        <ele>744</ele>
        <time>2015-10-18T12:24:19Z</time>
      </trkpt>
      <trkpt lat="42.4411" lon="0.09654">
        <ele>740</ele>
        <time>2015-10-18T12:24:25Z</time>
      </trkpt>
      <trkpt lat="42.44112" lon="0.09683">
        <ele>738</ele>
        <time>2015-10-18T12:24:30Z</time>
      </trkpt>
      <trkpt lat="42.44122" lon="0.09721">
        <ele>738</ele>
        <time>2015-10-18T12:24:38Z</time>
      </trkpt>
      <trkpt lat="42.44121" lon="0.09737">
        <ele>739</ele>
        <time>2015-10-18T12:24:47Z</time>
      </trkpt>
      <trkpt lat="42.4412" lon="0.09747">
        <ele>740</ele>
        <time>2015-10-18T12:24:53Z</time>
      </trkpt>
      <trkpt lat="42.4412" lon="0.09772">
        <ele>743</ele>
        <time>2015-10-18T12:25:07Z</time>
      </trkpt>
      <trkpt lat="42.44116" lon="0.09798">
        <ele>747</ele>
        <time>2015-10-18T12:25:24Z</time>
      </trkpt>
      <trkpt lat="42.44116" lon="0.09809">
        <ele>748</ele>
        <time>2015-10-18T12:25:31Z</time>
      </trkpt>
      <trkpt lat="42.44115" lon="0.09817">
        <ele>749</ele>
        <time>2015-10-18T12:25:41Z</time>
      </trkpt>
      <trkpt lat="42.44113" lon="0.09832">
        <ele>750</ele>
        <time>2015-10-18T12:25:58Z</time>
      </trkpt>
      <trkpt lat="42.44114" lon="0.0984">
        <ele>751</ele>
        <time>2015-10-18T12:27:15Z</time>
      </trkpt>
      <trkpt lat="42.44103" lon="0.09857">
        <ele>750</ele>
        <time>2015-10-18T12:27:24Z</time>
      </trkpt>
      <trkpt lat="42.44081" lon="0.09885">
        <ele>749</ele>
        <time>2015-10-18T12:27:33Z</time>
      </trkpt>
      <trkpt lat="42.44059" lon="0.09937">
        <ele>745</ele>
        <time>2015-10-18T12:27:41Z</time>
      </trkpt>
      <trkpt lat="42.44045" lon="0.09951">
        <ele>743</ele>
        <time>2015-10-18T12:27:47Z</time>
      </trkpt>
      <trkpt lat="42.44039" lon="0.09961">
        <ele>742</ele>
        <time>2015-10-18T12:27:56Z</time>
      </trkpt>
      <trkpt lat="42.44034" lon="0.09956">
        <ele>741</ele>
        <time>2015-10-18T12:30:36Z</time>
      </trkpt>
      <trkpt lat="42.44037" lon="0.09961">
        <ele>742</ele>
        <time>2015-10-18T12:31:00Z</time>
      </trkpt>
      <trkpt lat="42.44038" lon="0.09963">
        <ele>741</ele>
        <time>2015-10-18T12:31:46Z</time>
      </trkpt>
      <trkpt lat="42.44047" lon="0.09997">
        <ele>740</ele>
        <time>2015-10-18T12:31:57Z</time>
      </trkpt>
      <trkpt lat="42.44043" lon="0.10041">
        <ele>738</ele>
        <time>2015-10-18T12:32:04Z</time>
      </trkpt>
      <trkpt lat="42.44046" lon="0.10083">
        <ele>736</ele>
        <time>2015-10-18T12:32:12Z</time>
      </trkpt>
      <trkpt lat="42.44028" lon="0.10117">
        <ele>732</ele>
        <time>2015-10-18T12:32:17Z</time>
      </trkpt>
      <trkpt lat="42.44017" lon="0.10165">
        <ele>727</ele>
        <time>2015-10-18T12:32:23Z</time>
      </trkpt>
      <trkpt lat="42.44015" lon="0.10187">
        <ele>725</ele>
        <time>2015-10-18T12:32:30Z</time>
      </trkpt>
      <trkpt lat="42.44011" lon="0.10206">
        <ele>726</ele>
        <time>2015-10-18T12:32:39Z</time>
      </trkpt>
      <trkpt lat="42.44006" lon="0.10214">
        <ele>728</ele>
        <time>2015-10-18T12:32:46Z</time>
      </trkpt>
      <trkpt lat="42.44002" lon="0.10227">
        <ele>730</ele>
        <time>2015-10-18T12:32:54Z</time>
      </trkpt>
      <trkpt lat="42.43998" lon="0.10243">
        <ele>731</ele>
        <time>2015-10-18T12:33:08Z</time>
      </trkpt>
      <trkpt lat="42.43996" lon="0.10256">
        <ele>732</ele>
        <time>2015-10-18T12:33:17Z</time>
      </trkpt>
      <trkpt lat="42.43984" lon="0.10277">
        <ele>731</ele>
        <time>2015-10-18T12:34:11Z</time>
      </trkpt>
      <trkpt lat="42.43965" lon="0.10303">
        <ele>728</ele>
        <time>2015-10-18T12:34:18Z</time>
      </trkpt>
      <trkpt lat="42.4395" lon="0.10322">
        <ele>722</ele>
        <time>2015-10-18T12:34:23Z</time>
      </trkpt>
      <trkpt lat="42.43928" lon="0.10351">
        <ele>716</ele>
        <time>2015-10-18T12:34:29Z</time>
      </trkpt>
      <trkpt lat="42.4392" lon="0.10379">
        <ele>711</ele>
        <time>2015-10-18T12:34:34Z</time>
      </trkpt>
      <trkpt lat="42.43918" lon="0.10385">
        <ele>710</ele>
        <time>2015-10-18T12:34:41Z</time>
      </trkpt>
      <trkpt lat="42.43915" lon="0.10398">
        <ele>711</ele>
        <time>2015-10-18T12:34:54Z</time>
      </trkpt>
      <trkpt lat="42.43914" lon="0.10412">
        <ele>711</ele>
        <time>2015-10-18T12:35:05Z</time>
      </trkpt>
      <trkpt lat="42.43913" lon="0.10435">
        <ele>712</ele>
        <time>2015-10-18T12:35:12Z</time>
      </trkpt>
      <trkpt lat="42.43915" lon="0.10477">
        <ele>713</ele>
        <time>2015-10-18T12:35:25Z</time>
      </trkpt>
      <trkpt lat="42.43898" lon="0.10531">
        <ele>709</ele>
        <time>2015-10-18T12:35:34Z</time>
      </trkpt>
      <trkpt lat="42.43877" lon="0.10587">
        <ele>708</ele>
        <time>2015-10-18T12:35:44Z</time>
      </trkpt>
      <trkpt lat="42.43862" lon="0.10618">
        <ele>709</ele>
        <time>2015-10-18T12:35:52Z</time>
      </trkpt>
      <trkpt lat="42.43859" lon="0.10629">
        <ele>710</ele>
        <time>2015-10-18T12:35:58Z</time>
      </trkpt>
      <trkpt lat="42.43854" lon="0.1064">
        <ele>710</ele>
        <time>2015-10-18T12:36:07Z</time>
      </trkpt>
      <trkpt lat="42.43848" lon="0.1064">
        <ele>709</ele>
        <time>2015-10-18T12:36:48Z</time>
      </trkpt>
      <trkpt lat="42.43824" lon="0.10684">
        <ele>707</ele>
        <time>2015-10-18T12:36:55Z</time>
      </trkpt>
      <trkpt lat="42.43793" lon="0.10733">
        <ele>701</ele>
        <time>2015-10-18T12:37:01Z</time>
      </trkpt>
      <trkpt lat="42.43771" lon="0.10757">
        <ele>695</ele>
        <time>2015-10-18T12:37:06Z</time>
      </trkpt>
      <trkpt lat="42.43733" lon="0.10801">
        <ele>688</ele>
        <time>2015-10-18T12:37:14Z</time>
      </trkpt>
      <trkpt lat="42.43732" lon="0.10804">
        <ele>685</ele>
        <time>2015-10-18T12:37:19Z</time>
      </trkpt>
      <trkpt lat="42.43725" lon="0.10821">
        <ele>685</ele>
        <time>2015-10-18T12:37:32Z</time>
      </trkpt>
      <trkpt lat="42.43718" lon="0.10828">
        <ele>685</ele>
        <time>2015-10-18T12:37:46Z</time>
      </trkpt>
      <trkpt lat="42.43694" lon="0.10857">
        <ele>684</ele>
        <time>2015-10-18T12:37:55Z</time>
      </trkpt>
      <trkpt lat="42.43656" lon="0.10904">
        <ele>681</ele>
        <time>2015-10-18T12:38:03Z</time>
      </trkpt>
      <trkpt lat="42.43636" lon="0.1092">
        <ele>681</ele>
        <time>2015-10-18T12:38:10Z</time>
      </trkpt>
      <trkpt lat="42.43609" lon="0.10935">
        <ele>684</ele>
        <time>2015-10-18T12:38:20Z</time>
      </trkpt>
      <trkpt lat="42.43602" lon="0.10944">
        <ele>686</ele>
        <time>2015-10-18T12:38:24Z</time>
      </trkpt>
      <trkpt lat="42.43581" lon="0.10954">
        <ele>688</ele>
        <time>2015-10-18T12:38:35Z</time>
      </trkpt>
      <trkpt lat="42.43568" lon="0.10978">
        <ele>688</ele>
        <time>2015-10-18T12:38:47Z</time>
      </trkpt>
      <trkpt lat="42.43559" lon="0.11009">
        <ele>688</ele>
        <time>2015-10-18T12:38:53Z</time>
      </trkpt>
      <trkpt lat="42.43532" lon="0.11044">
        <ele>686</ele>
        <time>2015-10-18T12:39:00Z</time>
      </trkpt>
      <trkpt lat="42.43515" lon="0.11083">
        <ele>683</ele>
        <time>2015-10-18T12:39:05Z</time>
      </trkpt>
      <trkpt lat="42.43502" lon="0.11111">
        <ele>680</ele>
        <time>2015-10-18T12:39:10Z</time>
      </trkpt>
      <trkpt lat="42.43479" lon="0.11153">
        <ele>674</ele>
        <time>2015-10-18T12:39:16Z</time>
      </trkpt>
      <trkpt lat="42.43452" lon="0.11192">
        <ele>670</ele>
        <time>2015-10-18T12:39:22Z</time>
      </trkpt>
      <trkpt lat="42.43432" lon="0.1122">
        <ele>668</ele>
        <time>2015-10-18T12:39:26Z</time>
      </trkpt>
      <trkpt lat="42.43405" lon="0.11259">
        <ele>665</ele>
        <time>2015-10-18T12:39:32Z</time>
      </trkpt>
      <trkpt lat="42.43396" lon="0.11275">
        <ele>664</ele>
        <time>2015-10-18T12:39:37Z</time>
      </trkpt>
      <trkpt lat="42.4339" lon="0.11295">
        <ele>664</ele>
        <time>2015-10-18T12:39:56Z</time>
      </trkpt>
      <trkpt lat="42.43387" lon="0.113">
        <ele>664</ele>
        <time>2015-10-18T12:41:35Z</time>
      </trkpt>
      <trkpt lat="42.43381" lon="0.11317">
        <ele>664</ele>
        <time>2015-10-18T12:41:43Z</time>
      </trkpt>
      <trkpt lat="42.43364" lon="0.11349">
        <ele>663</ele>
        <time>2015-10-18T12:41:49Z</time>
      </trkpt>
      <trkpt lat="42.43345" lon="0.11381">
        <ele>660</ele>
        <time>2015-10-18T12:41:54Z</time>
      </trkpt>
      <trkpt lat="42.43318" lon="0.11432">
        <ele>652</ele>
        <time>2015-10-18T12:42:03Z</time>
      </trkpt>
      <trkpt lat="42.43304" lon="0.11452">
        <ele>650</ele>
        <time>2015-10-18T12:42:09Z</time>
      </trkpt>
      <trkpt lat="42.43287" lon="0.1147">
        <ele>646</ele>
        <time>2015-10-18T12:42:17Z</time>
      </trkpt>
      <trkpt lat="42.43292" lon="0.11488">
        <ele>640</ele>
        <time>2015-10-18T12:42:22Z</time>
      </trkpt>
      <trkpt lat="42.43291" lon="0.11497">
        <ele>633</ele>
        <time>2015-10-18T12:42:28Z</time>
      </trkpt>
      <trkpt lat="42.43288" lon="0.11507">
        <ele>631</ele>
        <time>2015-10-18T12:42:32Z</time>
      </trkpt>
      <trkpt lat="42.43273" lon="0.1153">
        <ele>626</ele>
        <time>2015-10-18T12:42:38Z</time>
      </trkpt>
      <trkpt lat="42.43263" lon="0.11561">
        <ele>618</ele>
        <time>2015-10-18T12:42:44Z</time>
      </trkpt>
      <trkpt lat="42.43254" lon="0.11592">
        <ele>613</ele>
        <time>2015-10-18T12:42:51Z</time>
      </trkpt>
      <trkpt lat="42.43243" lon="0.11602">
        <ele>611</ele>
        <time>2015-10-18T12:42:56Z</time>
      </trkpt>
      <trkpt lat="42.43217" lon="0.11618">
        <ele>602</ele>
        <time>2015-10-18T12:43:03Z</time>
      </trkpt>
      <trkpt lat="42.432" lon="0.11606">
        <ele>594</ele>
        <time>2015-10-18T12:43:09Z</time>
      </trkpt>
      <trkpt lat="42.43193" lon="0.11606">
        <ele>590</ele>
        <time>2015-10-18T12:43:17Z</time>
      </trkpt>
      <trkpt lat="42.4314" lon="0.11619">
        <ele>585</ele>
        <time>2015-10-18T12:43:26Z</time>
      </trkpt>
      <trkpt lat="42.43097" lon="0.11654">
        <ele>579</ele>
        <time>2015-10-18T12:43:33Z</time>
      </trkpt>
      <trkpt lat="42.43064" lon="0.1168">
        <ele>574</ele>
        <time>2015-10-18T12:43:40Z</time>
      </trkpt>
      <trkpt lat="42.43046" lon="0.117">
        <ele>566</ele>
        <time>2015-10-18T12:43:52Z</time>
      </trkpt>
      <trkpt lat="42.43045" lon="0.11703">
        <ele>566</ele>
        <time>2015-10-18T12:44:22Z</time>
      </trkpt>
      <trkpt lat="42.4305" lon="0.11721">
        <ele>567</ele>
        <time>2015-10-18T12:44:33Z</time>
      </trkpt>
      <trkpt lat="42.43056" lon="0.11741">
        <ele>570</ele>
        <time>2015-10-18T12:44:46Z</time>
      </trkpt>
      <trkpt lat="42.43059" lon="0.11746">
        <ele>570</ele>
        <time>2015-10-18T12:45:25Z</time>
      </trkpt>
      <trkpt lat="42.43064" lon="0.11775">
        <ele>571</ele>
        <time>2015-10-18T12:45:35Z</time>
      </trkpt>
      <trkpt lat="42.43065" lon="0.11788">
        <ele>572</ele>
        <time>2015-10-18T12:46:21Z</time>
      </trkpt>
      <trkpt lat="42.43068" lon="0.11831">
        <ele>572</ele>
        <time>2015-10-18T12:46:31Z</time>
      </trkpt>
      <trkpt lat="42.43069" lon="0.11883">
        <ele>574</ele>
        <time>2015-10-18T12:46:47Z</time>
      </trkpt>
      <trkpt lat="42.43081" lon="0.11905">
        <ele>577</ele>
        <time>2015-10-18T12:47:00Z</time>
      </trkpt>
      <trkpt lat="42.43097" lon="0.11928">
        <ele>580</ele>
        <time>2015-10-18T12:47:16Z</time>
      </trkpt>
      <trkpt lat="42.43109" lon="0.11952">
        <ele>582</ele>
        <time>2015-10-18T12:47:30Z</time>
      </trkpt>
      <trkpt lat="42.43117" lon="0.1198">
        <ele>584</ele>
        <time>2015-10-18T12:47:45Z</time>
      </trkpt>
      <trkpt lat="42.43127" lon="0.12028">
        <ele>583</ele>
        <time>2015-10-18T12:48:01Z</time>
      </trkpt>
      <trkpt lat="42.43131" lon="0.12058">
        <ele>582</ele>
        <time>2015-10-18T12:48:07Z</time>
      </trkpt>
      <trkpt lat="42.43148" lon="0.12135">
        <ele>579</ele>
        <time>2015-10-18T12:48:17Z</time>
      </trkpt>
      <trkpt lat="42.43164" lon="0.12184">
        <ele>576</ele>
        <time>2015-10-18T12:48:23Z</time>
      </trkpt>
      <trkpt lat="42.43191" lon="0.12189">
        <ele>574</ele>
        <time>2015-10-18T12:48:29Z</time>
      </trkpt>
      <trkpt lat="42.43199" lon="0.12223">
        <ele>575</ele>
        <time>2015-10-18T12:48:38Z</time>
      </trkpt>
      <trkpt lat="42.43225" lon="0.12253">
        <ele>575</ele>
        <time>2015-10-18T12:48:52Z</time>
      </trkpt>
      <trkpt lat="42.43255" lon="0.12275">
        <ele>576</ele>
        <time>2015-10-18T12:49:06Z</time>
      </trkpt>
      <trkpt lat="42.43248" lon="0.12316">
        <ele>577</ele>
        <time>2015-10-18T12:49:18Z</time>
      </trkpt>
      <trkpt lat="42.43254" lon="0.12361">
        <ele>575</ele>
        <time>2015-10-18T12:49:24Z</time>
      </trkpt>
      <trkpt lat="42.43259" lon="0.12449">
        <ele>570</ele>
        <time>2015-10-18T12:49:33Z</time>
      </trkpt>
      <trkpt lat="42.43243" lon="0.12504">
        <ele>567</ele>
        <time>2015-10-18T12:49:39Z</time>
      </trkpt>
      <trkpt lat="42.43263" lon="0.12562">
        <ele>565</ele>
        <time>2015-10-18T12:49:46Z</time>
      </trkpt>
      <trkpt lat="42.43281" lon="0.12613">
        <ele>563</ele>
        <time>2015-10-18T12:49:53Z</time>
      </trkpt>
      <trkpt lat="42.43269" lon="0.12647">
        <ele>563</ele>
        <time>2015-10-18T12:50:05Z</time>
      </trkpt>
      <trkpt lat="42.43249" lon="0.12663">
        <ele>562</ele>
        <time>2015-10-18T12:50:13Z</time>
      </trkpt>
      <trkpt lat="42.43231" lon="0.12665">
        <ele>564</ele>
        <time>2015-10-18T12:50:23Z</time>
      </trkpt>
      <trkpt lat="42.43204" lon="0.12671">
        <ele>566</ele>
        <time>2015-10-18T12:50:36Z</time>
      </trkpt>
      <trkpt lat="42.43181" lon="0.12683">
        <ele>567</ele>
        <time>2015-10-18T12:50:48Z</time>
      </trkpt>
      <trkpt lat="42.4316" lon="0.12701">
        <ele>570</ele>
        <time>2015-10-18T12:51:02Z</time>
      </trkpt>
      <trkpt lat="42.4314" lon="0.12715">
        <ele>573</ele>
        <time>2015-10-18T12:51:18Z</time>
      </trkpt>
      <trkpt lat="42.43121" lon="0.12729">
        <ele>576</ele>
        <time>2015-10-18T12:51:34Z</time>
      </trkpt>
      <trkpt lat="42.43104" lon="0.12746">
        <ele>578</ele>
        <time>2015-10-18T12:51:49Z</time>
      </trkpt>
      <trkpt lat="42.43092" lon="0.12764">
        <ele>581</ele>
        <time>2015-10-18T12:52:00Z</time>
      </trkpt>
      <trkpt lat="42.43068" lon="0.1279">
        <ele>582</ele>
        <time>2015-10-18T12:52:14Z</time>
      </trkpt>
      <trkpt lat="42.43056" lon="0.12798">
        <ele>582</ele>
        <time>2015-10-18T12:52:19Z</time>
      </trkpt>
      <trkpt lat="42.43032" lon="0.12824">
        <ele>585</ele>
        <time>2015-10-18T12:52:32Z</time>
      </trkpt>
      <trkpt lat="42.42999" lon="0.12856">
        <ele>587</ele>
        <time>2015-10-18T12:52:47Z</time>
      </trkpt>
      <trkpt lat="42.42974" lon="0.12888">
        <ele>588</ele>
        <time>2015-10-18T12:52:59Z</time>
      </trkpt>
      <trkpt lat="42.42953" lon="0.12911">
        <ele>590</ele>
        <time>2015-10-18T12:53:10Z</time>
      </trkpt>
      <trkpt lat="42.42924" lon="0.12937">
        <ele>593</ele>
        <time>2015-10-18T12:53:26Z</time>
      </trkpt>
      <trkpt lat="42.42892" lon="0.12945">
        <ele>594</ele>
        <time>2015-10-18T12:53:39Z</time>
      </trkpt>
      <trkpt lat="42.42867" lon="0.12953">
        <ele>597</ele>
        <time>2015-10-18T12:53:52Z</time>
      </trkpt>
      <trkpt lat="42.42844" lon="0.12956">
        <ele>600</ele>
        <time>2015-10-18T12:54:04Z</time>
      </trkpt>
      <trkpt lat="42.42835" lon="0.12963">
        <ele>600</ele>
        <time>2015-10-18T12:54:15Z</time>
      </trkpt>
      <trkpt lat="42.42827" lon="0.1297">
        <ele>601</ele>
        <time>2015-10-18T12:55:05Z</time>
      </trkpt>
      <trkpt lat="42.42806" lon="0.12975">
        <ele>601</ele>
        <time>2015-10-18T12:55:13Z</time>
      </trkpt>
      <trkpt lat="42.42804" lon="0.12973">
        <ele>602</ele>
        <time>2015-10-18T12:55:20Z</time>
      </trkpt>
      <trkpt lat="42.42782" lon="0.12983">
        <ele>602</ele>
        <time>2015-10-18T12:55:30Z</time>
      </trkpt>
      <trkpt lat="42.42756" lon="0.12997">
        <ele>603</ele>
        <time>2015-10-18T12:55:43Z</time>
      </trkpt>
      <trkpt lat="42.42721" lon="0.13018">
        <ele>603</ele>
        <time>2015-10-18T12:55:58Z</time>
      </trkpt>
      <trkpt lat="42.4267" lon="0.13029">
        <ele>603</ele>
        <time>2015-10-18T12:56:12Z</time>
      </trkpt>
      <trkpt lat="42.42628" lon="0.13036">
        <ele>602</ele>
        <time>2015-10-18T12:56:21Z</time>
      </trkpt>
      <trkpt lat="42.42558" lon="0.13082">
        <ele>601</ele>
        <time>2015-10-18T12:56:37Z</time>
      </trkpt>
      <trkpt lat="42.42514" lon="0.13099">
        <ele>600</ele>
        <time>2015-10-18T12:56:46Z</time>
      </trkpt>
      <trkpt lat="42.42442" lon="0.1312">
        <ele>599</ele>
        <time>2015-10-18T12:57:01Z</time>
      </trkpt>
      <trkpt lat="42.42358" lon="0.13165">
        <ele>597</ele>
        <time>2015-10-18T12:57:19Z</time>
      </trkpt>
      <trkpt lat="42.42303" lon="0.13201">
        <ele>596</ele>
        <time>2015-10-18T12:57:31Z</time>
      </trkpt>
      <trkpt lat="42.42199" lon="0.13252">
        <ele>595</ele>
        <time>2015-10-18T12:57:52Z</time>
      </trkpt>
      <trkpt lat="42.4212" lon="0.13299">
        <ele>594</ele>
        <time>2015-10-18T12:58:08Z</time>
      </trkpt>
      <trkpt lat="42.42046" lon="0.13353">
        <ele>592</ele>
        <time>2015-10-18T12:58:25Z</time>
      </trkpt>
      <trkpt lat="42.41979" lon="0.13398">
        <ele>591</ele>
        <time>2015-10-18T12:58:40Z</time>
      </trkpt>
      <trkpt lat="42.41939" lon="0.13455">
        <ele>589</ele>
        <time>2015-10-18T12:58:51Z</time>
      </trkpt>
      <trkpt lat="42.41921" lon="0.13503">
        <ele>589</ele>
        <time>2015-10-18T12:58:59Z</time>
      </trkpt>
      <trkpt lat="42.41904" lon="0.13515">
        <ele>589</ele>
        <time>2015-10-18T12:59:04Z</time>
      </trkpt>
      <trkpt lat="42.41855" lon="0.13507">
        <ele>591</ele>
        <time>2015-10-18T12:59:18Z</time>
      </trkpt>
      <trkpt lat="42.41843" lon="0.13524">
        <ele>591</ele>
        <time>2015-10-18T12:59:26Z</time>
      </trkpt>
      <trkpt lat="42.41826" lon="0.13552">
        <ele>591</ele>
        <time>2015-10-18T12:59:40Z</time>
      </trkpt>
      <trkpt lat="42.41819" lon="0.13584">
        <ele>591</ele>
        <time>2015-10-18T12:59:51Z</time>
      </trkpt>
      <trkpt lat="42.4181" lon="0.13629">
        <ele>590</ele>
        <time>2015-10-18T13:00:01Z</time>
      </trkpt>
      <trkpt lat="42.41805" lon="0.1368">
        <ele>589</ele>
        <time>2015-10-18T13:00:14Z</time>
      </trkpt>
      <trkpt lat="42.41808" lon="0.13695">
        <ele>589</ele>
        <time>2015-10-18T13:00:22Z</time>
      </trkpt>
      <trkpt lat="42.41794" lon="0.13727">
        <ele>588</ele>
        <time>2015-10-18T13:00:35Z</time>
      </trkpt>
      <trkpt lat="42.41777" lon="0.13766">
        <ele>588</ele>
        <time>2015-10-18T13:00:52Z</time>
      </trkpt>
      <trkpt lat="42.41769" lon="0.13788">
        <ele>588</ele>
        <time>2015-10-18T13:01:05Z</time>
      </trkpt>
      <trkpt lat="42.41749" lon="0.13818">
        <ele>587</ele>
        <time>2015-10-18T13:01:16Z</time>
      </trkpt>
      <trkpt lat="42.4174" lon="0.13838">
        <ele>587</ele>
        <time>2015-10-18T13:01:23Z</time>
      </trkpt>
      <trkpt lat="42.41729" lon="0.13857">
        <ele>587</ele>
        <time>2015-10-18T13:01:32Z</time>
      </trkpt>
      <trkpt lat="42.41696" lon="0.1389">
        <ele>587</ele>
        <time>2015-10-18T13:01:48Z</time>
      </trkpt>
      <trkpt lat="42.41654" lon="0.13926">
        <ele>585</ele>
        <time>2015-10-18T13:01:59Z</time>
      </trkpt>
      <trkpt lat="42.41606" lon="0.13974">
        <ele>579</ele>
        <time>2015-10-18T13:02:12Z</time>
      </trkpt>
      <trkpt lat="42.41594" lon="0.13986">
        <ele>577</ele>
        <time>2015-10-18T13:02:18Z</time>
      </trkpt>
      <trkpt lat="42.41576" lon="0.14001">
        <ele>575</ele>
        <time>2015-10-18T13:02:28Z</time>
      </trkpt>
      <trkpt lat="42.41568" lon="0.13997">
        <ele>574</ele>
        <time>2015-10-18T13:02:33Z</time>
      </trkpt>
      <trkpt lat="42.41554" lon="0.13993">
        <ele>572</ele>
        <time>2015-10-18T13:02:41Z</time>
      </trkpt>
      <trkpt lat="42.41553" lon="0.13952">
        <ele>570</ele>
        <time>2015-10-18T13:02:50Z</time>
      </trkpt>
      <trkpt lat="42.41569" lon="0.13929">
        <ele>567</ele>
        <time>2015-10-18T13:02:59Z</time>
      </trkpt>
      <trkpt lat="42.41563" lon="0.13906">
        <ele>566</ele>
        <time>2015-10-18T13:03:05Z</time>
      </trkpt>
      <trkpt lat="42.41592" lon="0.13846">
        <ele>558</ele>
        <time>2015-10-18T13:03:14Z</time>
      </trkpt>
      <trkpt lat="42.41608" lon="0.13809">
        <ele>548</ele>
        <time>2015-10-18T13:03:21Z</time>
      </trkpt>
      <trkpt lat="42.41604" lon="0.13807">
        <ele>545</ele>
        <time>2015-10-18T13:03:26Z</time>
      </trkpt>
      <trkpt lat="42.4159" lon="0.13815">
        <ele>544</ele>
        <time>2015-10-18T13:03:31Z</time>
      </trkpt>
      <trkpt lat="42.41557" lon="0.13824">
        <ele>539</ele>
        <time>2015-10-18T13:03:41Z</time>
      </trkpt>
      <trkpt lat="42.41532" lon="0.13839">
        <ele>534</ele>
        <time>2015-10-18T13:03:51Z</time>
      </trkpt>
      <trkpt lat="42.41519" lon="0.13845">
        <ele>533</ele>
        <time>2015-10-18T13:03:58Z</time>
      </trkpt>
      <trkpt lat="42.4147" lon="0.13905">
        <ele>533</ele>
        <time>2015-10-18T13:04:12Z</time>
      </trkpt>
      <trkpt lat="42.41451" lon="0.13963">
        <ele>532</ele>
        <time>2015-10-18T13:04:21Z</time>
      </trkpt>
      <trkpt lat="42.41456" lon="0.13991">
        <ele>531</ele>
        <time>2015-10-18T13:04:25Z</time>
      </trkpt>
      <trkpt lat="42.41448" lon="0.14026">
        <ele>530</ele>
        <time>2015-10-18T13:04:31Z</time>
      </trkpt>
      <trkpt lat="42.41399" lon="0.1403">
        <ele>529</ele>
        <time>2015-10-18T13:04:41Z</time>
      </trkpt>
      <trkpt lat="42.41369" lon="0.14024">
        <ele>529</ele>
        <time>2015-10-18T13:04:52Z</time>
      </trkpt>
      <trkpt lat="42.41381" lon="0.1401">
        <ele>529</ele>
        <time>2015-10-18T13:06:55Z</time>
      </trkpt>
      <trkpt lat="42.41398" lon="0.13979">
        <ele>528</ele>
        <time>2015-10-18T13:07:05Z</time>
      </trkpt>
      <trkpt lat="42.41397" lon="0.13989">
        <ele>527</ele>
        <time>2015-10-18T13:07:15Z</time>
      </trkpt>
      <trkpt lat="42.41394" lon="0.13993">
        <ele>527</ele>
        <time>2015-10-18T13:07:18Z</time>
      </trkpt>
      <trkpt lat="42.41389" lon="0.13997">
        <ele>527</ele>
        <time>2015-10-18T13:08:24Z</time>
      </trkpt>
    </trkseg>
  </trk>
</gpx>